Atkinson, North Carolina
Current Conditions -  °F | °C
As of 3:53 PM on Sunday 21 Dec 2014 (Local Time) from KILM Reporting Station
Overcast Overcast  
Wind Chill: 50°   Ceiling: 4400
Heat Index: 50°   Visibility: 10mi
Dew Point: 38°   Wind: 9mph
Humidity: 63%   Direction: 30°NNE
Pressure: 30.2"   Gusts: NA
Location:  34.53°N, 78.17°W
Report Text: KILM 212053Z 03008KT 10SM SCT034 OVC044 10/03 A3020 RMK AO2 SLP225 T01000033 55013
Loading
Personal Weather Stations






























Interactive Weather Map New forecast layout! Learn more

10-Day Weather Forecast

Advertisements
Track Severe Weather on mobile